Date,TemperatureHighF,TemperatureAvgF,TemperatureLowF,DewpointHighF,DewpointAvgF,DewpointLowF,HumidityHigh,HumidityAvg,HumidityLow,PressureMaxIn,PressureMinIn,WindSpeedMaxMPH,WindSpeedAvgMPH,GustSpeedMaxMPH,PrecipitationSumIn
2012-1-1,79,68,61,65,62,59,97,80,54,30.25,30.14,4,1,9,0.00
2012-1-2,76,64,53,66,56,37,98,76,48,30.18,30.03,9,3,15,0.00
2012-1-3,53,49,41,45,27,11,75,46,22,30.35,30.15,18,6,26,0.00
2012-1-4,63,54,40,51,42,23,74,64,50,30.38,30.25,10,4,16,0.00
2012-1-5,66,54,45,45,35,21,89,53,21,30.29,30.17,7,2,11,0.00
2012-1-6,72,57,46,55,50,43,96,78,44,30.23,30.12,7,1,9,0.00
2012-1-7,75,62,51,56,53,48,98,75,40,30.20,30.10,7,1,12,0.00
2012-1-8,76,68,53,62,57,52,97,71,48,30.23,30.14,9,2,14,0.00
2012-1-9,77,68,59,64,61,57,94,79,62,30.20,30.09,8,2,16,0.00
2012-1-10,78,66,57,64,60,56,99,81,54,30.10,29.97,7,1,13,0.00
2012-1-11,75,68,58,68,64,57,98,88,73,29.98,29.79,15,3,19,0.00
2012-1-12,78,71,64,66,64,61,97,81,62,29.97,29.84,8,2,14,0.00
2012-1-13,75,66,61,64,59,49,93,79,63,30.16,29.97,6,2,12,0.00
2012-1-14,61,55,52,52,43,37,75,65,51,30.34,30.15,12,4,16,0.00
2012-1-15,67,58,45,47,41,29,74,56,34,30.43,30.32,13,4,16,0.00
2012-1-16,71,64,55,56,52,44,83,66,55,30.41,30.30,14,4,18,0.00
2012-1-17,78,68,61,63,59,54,90,74,53,30.30,30.16,11,2,14,0.00
2012-1-18,74,64,58,66,60,57,97,88,71,30.16,29.96,7,0,13,0.00
2012-1-19,72,66,58,62,57,51,94,75,49,30.13,29.98,12,4,19,0.00
2012-1-20,76,64,53,59,55,52,98,75,48,30.19,30.11,10,2,14,0.00
2012-1-21,78,67,56,63,59,55,98,78,51,30.15,30.03,9,2,14,0.00
2012-1-22,79,70,58,66,62,56,97,75,52,30.12,30.04,9,2,13,0.00
2012-1-23,80,72,67,68,66,63,95,80,57,30.12,30.06,13,3,23,0.02
2012-1-24,79,70,66,70,67,64,97,88,66,30.17,30.08,9,1,14,0.05
2012-1-25,79,73,65,69,67,64,97,83,67,30.18,30.08,8,2,18,0.05
2012-1-26,80,74,68,69,67,65,93,81,66,30.11,29.98,12,4,22,0.10
2012-1-27,82,75,68,71,68,66,92,80,61,30.05,29.93,14,4,21,0.00
2012-1-28,80,70,67,67,65,62,96,82,58,30.14,30.04,8,1,10,0.00
2012-1-29,74,69,64,65,62,58,93,80,68,30.24,30.11,12,4,17,0.00
2012-1-30,75,68,60,62,60,58,97,76,59,30.30,30.19,14,5,20,0.00
2012-1-31,76,70,66,64,60,58,80,70,60,30.31,30.22,11,4,17,0.00
2012-2-1,79,73,68,67,65,62,87,76,63,30.23,30.13,9,3,16,0.00
2012-2-2,72,69,67,70,67,65,97,93,87,30.16,30.07,10,2,18,0.08
2012-2-3,78,72,66,68,66,65,96,83,69,30.19,30.10,14,6,22,0.09
2012-2-4,77,73,71,69,67,64,93,81,72,30.16,30.05,15,6,20,0.06
2012-2-5,80,75,67,71,69,67,98,82,66,30.06,29.96,11,3,14,0.10
2012-2-6,77,71,68,72,69,67,97,94,81,30.06,29.97,9,2,15,0.59
2012-2-7,82,73,69,73,70,68,99,92,73,30.02,29.90,9,1,13,0.88
2012-2-8,76,70,67,69,67,64,97,90,78,30.04,29.96,9,4,13,0.00
2012-2-9,76,72,67,68,65,62,87,81,71,30.09,29.99,13,6,19,0.00
2012-2-10,81,73,70,73,70,68,98,90,77,30.05,29.86,9,2,13,1.45
2012-2-11,70,64,54,68,56,46,98,76,59,30.07,29.85,16,6,22,1.62
2012-2-12,57,51,44,46,42,32,83,69,58,30.26,30.06,16,7,21,0.00
2012-2-13,69,58,46,54,47,42,90,71,49,30.22,30.12,11,3,14,0.00
2012-2-14,76,67,56,61,58,54,98,76,56,30.13,30.05,12,3,17,0.00
2012-2-15,79,68,59,65,62,58,98,83,57,30.20,30.10,9,1,14,0.00
2012-2-16,80,71,65,68,66,63,96,84,57,30.18,30.06,10,3,15,0.00
2012-2-17,83,73,65,69,67,64,98,83,61,30.08,29.97,10,2,13,0.00
2012-2-18,81,74,66,69,67,64,97,80,62,30.01,29.88,12,2,14,0.00
2012-2-19,85,76,68,72,69,63,96,82,59,29.94,29.81,13,5,21,0.00
2012-2-20,72,66,60,64,58,55,88,77,59,30.15,29.92,13,5,19,0.00
2012-2-21,77,69,58,60,58,55,93,69,51,30.20,30.11,9,2,15,0.00
2012-2-22,81,70,60,66,63,58,96,79,53,30.11,29.93,14,2,16,0.00
2012-2-23,86,74,64,69,65,62,97,78,45,29.99,29.89,12,2,14,0.00
2012-2-24,88,76,66,73,68,63,98,77,45,30.02,29.93,12,4,20,0.01
2012-2-25,76,71,67,73,66,61,99,85,73,30.18,30.00,16,5,20,0.01
2012-2-26,74,72,70,68,66,62,84,80,77,30.25,30.16,13,6,18,0.00
2012-2-27,82,76,72,73,69,67,94,81,65,30.26,30.18,12,6,19,0.16
2012-2-28,82,75,68,71,69,67,98,82,63,30.23,30.16,10,3,13,0.00
2012-2-29,81,76,71,73,70,68,92,82,70,30.20,30.09,13,4,17,0.01
2012-3-1,83,74,67,72,69,67,98,85,67,30.12,29.99,19,2,19,0.01
2012-3-2,84,75,67,71,69,66,99,81,59,30.05,29.95,11,4,18,0.00
2012-3-3,85,76,70,73,70,68,94,82,61,29.97,29.84,14,5,21,0.00
2012-3-4,79,67,55,73,57,36,94,73,38,30.18,29.81,19,7,28,0.01
2012-3-5,72,62,53,55,47,36,88,60,47,30.32,30.17,13,4,20,0.01
2012-3-6,77,66,56,63,55,-100,97,74,51,30.36,30.26,21,7,26,0.00
2012-3-7,75,72,69,67,63,57,86,73,65,30.35,30.25,16,8,26,0.00
2012-3-8,77,74,70,70,68,66,93,83,75,30.25,30.15,17,6,23,0.28
2012-3-9,82,76,70,71,69,66,91,79,64,30.19,30.08,13,4,19,0.30
2012-3-10,82,74,69,71,68,66,95,83,60,30.17,30.07,10,2,16,0.07
2012-3-11,81,73,68,70,67,65,96,83,62,30.25,30.15,15,6,24,0.17
2012-3-12,77,73,70,66,63,58,84,73,52,30.28,30.18,15,5,19,0.17
2012-3-13,79,72,65,63,62,60,86,70,55,30.22,30.15,9,3,15,0.00
2012-3-14,79,72,64,69,64,62,95,77,61,30.20,30.10,12,4,18,0.00
2012-3-15,78,74,70,69,67,65,90,79,69,30.20,30.10,18,5,21,0.01
2012-3-16,81,74,68,67,65,63,90,74,57,30.20,30.11,11,3,16,0.01
2012-3-17,80,75,64,66,64,60,95,68,54,30.20,30.12,10,4,16,0.00
2012-3-18,80,73,64,68,65,63,97,78,62,30.21,30.12,15,4,20,0.01
2012-3-19,80,74,68,66,62,59,86,67,50,30.16,30.06,13,4,17,0.00
2012-3-20,80,75,70,68,66,63,89,74,57,30.09,30.01,14,4,18,0.10
2012-3-21,81,76,70,69,68,66,93,77,65,30.13,30.03,17,6,23,0.18
2012-3-22,83,76,73,69,68,65,84,74,58,30.15,30.06,13,4,21,0.00
2012-3-23,83,76,68,67,66,62,91,70,51,30.11,30.01,11,2,13,0.00
2012-3-24,84,75,66,67,66,63,96,74,52,30.04,29.92,10,3,16,0.00
2012-3-25,83,75,69,69,66,61,92,75,57,29.96,29.78,11,4,20,0.01
2012-3-26,80,72,64,64,58,50,86,65,36,29.98,29.86,12,4,24,0.01
2012-3-27,81,74,68,67,64,61,94,73,53,30.16,29.96,14,4,18,0.00
2012-3-28,80,74,71,67,63,60,82,69,61,30.16,30.06,14,5,19,0.02
2012-3-29,82,72,64,66,63,62,97,75,52,30.07,29.97,7,2,14,0.02
2012-3-30,83,72,62,65,62,60,96,73,49,30.07,29.98,13,2,15,0.00
2012-3-31,86,73,64,70,66,62,96,81,53,30.01,29.85,11,2,16,0.05
2012-4-1,85,75,68,70,67,59,97,76,41,29.93,29.84,9,2,17,0.05
2012-4-2,86,77,68,71,68,62,97,76,47,29.91,29.84,5,1,19,0.00
2012-4-3,90,77,68,71,66,60,96,73,39,29.96,29.88,12,2,13,0.00
2012-4-4,87,77,69,72,69,66,98,79,50,29.97,29.81,11,3,17,0.00
2012-4-5,88,77,70,70,67,61,95,74,42,29.88,29.71,11,4,21,0.00
2012-4-6,87,77,71,73,69,61,97,78,45,29.89,29.71,14,4,24,0.11
2012-4-7,79,74,68,67,63,59,91,70,59,30.09,29.88,18,8,24,0.00
2012-4-8,78,72,67,60,57,55,72,60,48,30.15,30.07,13,4,15,0.00
2012-4-9,80,72,63,64,62,59,94,71,52,30.08,29.99,10,2,15,0.00
2012-4-10,83,72,63,65,61,55,97,71,39,30.08,29.98,13,2,15,0.00
2012-4-11,85,78,64,66,62,57,94,60,39,30.04,29.93,8,2,13,0.00
2012-4-12,84,74,65,68,64,60,88,72,48,30.03,29.93,14,3,19,0.00
2012-4-13,82,75,70,68,67,65,91,76,61,30.11,29.99,17,5,22,0.00
2012-4-14,79,74,69,68,64,60,94,71,55,30.21,30.08,17,7,25,0.23
2012-4-15,80,75,70,64,62,58,75,62,55,30.20,30.14,15,6,23,0.00
2012-4-16,82,76,72,65,60,56,74,59,45,30.19,30.09,17,6,23,0.00
2012-4-17,82,77,70,66,63,57,78,64,46,30.16,30.05,12,4,22,0.00
2012-4-18,83,76,68,67,66,64,90,71,55,30.10,29.95,10,4,21,0.00
2012-4-19,83,77,72,69,68,67,87,74,62,30.00,29.88,12,4,17,0.00
2012-4-20,85,74,67,71,68,64,96,84,61,29.93,29.81,15,3,19,0.35
2012-4-21,76,72,68,71,68,66,98,85,72,29.89,29.66,18,6,25,0.04
2012-4-22,81,75,65,72,66,63,97,75,56,29.72,29.54,23,6,23,0.06
2012-4-23,78,69,62,64,53,47,85,60,38,29.90,29.71,14,5,23,0.06
2012-4-24,74,64,55,52,44,35,90,52,27,30.02,29.88,11,4,17,0.00
2012-4-25,80,69,56,58,52,44,80,57,37,30.11,30.02,10,3,16,0.00
2012-4-26,83,72,60,64,61,57,95,71,46,30.14,30.05,9,2,14,0.00
2012-4-27,83,73,64,70,64,-100,96,76,55,30.11,30.03,9,-8,14,0.00
2012-4-28,82,75,69,74,70,66,98,86,61,30.08,30.02,13,3,16,0.01
2012-4-29,76,74,71,72,70,67,95,88,76,30.07,29.99,14,5,22,0.11
2012-4-30,77,74,72,71,70,67,95,86,78,30.05,29.98,21,8,47,0.19
2012-5-1,81,76,71,74,71,69,96,86,74,30.07,29.99,15,6,21,0.78
2012-5-2,83,78,73,73,71,70,93,80,67,30.09,29.99,16,5,18,0.80
2012-5-3,85,78,73,73,70,69,88,77,62,30.08,30.02,11,4,18,0.00
2012-5-4,85,78,72,71,69,67,87,76,59,30.08,30.00,12,3,14,0.00
2012-5-5,87,78,69,72,70,67,95,77,56,30.02,29.92,11,2,15,0.00
2012-5-6,89,78,70,73,70,65,96,78,46,29.98,29.86,11,2,13,0.00
2012-5-7,88,77,70,74,70,67,96,82,53,29.91,29.82,12,3,18,0.15
2012-5-8,86,75,70,74,70,66,98,87,54,29.91,29.85,13,2,15,0.50
2012-5-9,87,76,70,74,71,69,97,87,60,29.90,29.78,10,2,19,0.43
2012-5-10,86,77,72,75,73,70,98,87,63,29.88,29.78,9,2,12,0.07
2012-5-11,85,78,72,74,72,70,98,83,65,30.08,29.86,13,4,18,0.31
2012-5-12,84,80,76,72,70,66,83,72,58,30.16,30.05,13,7,24,0.31
2012-5-13,84,79,75,71,70,69,83,75,63,30.11,30.00,11,4,17,0.00
2012-5-14,88,79,73,75,74,71,96,84,61,30.04,29.92,10,2,15,0.02
2012-5-15,90,76,70,75,72,68,98,88,60,30.01,29.92,18,2,18,0.84
2012-5-16,81,76,71,74,72,71,98,90,76,30.00,29.90,6,0,7,0.84
2012-5-17,83,77,69,76,72,68,98,85,71,29.96,29.85,10,2,20,0.06
2012-5-18,90,77,71,73,71,67,99,82,51,29.92,29.85,9,1,21,0.00
2012-5-19,85,74,69,74,71,67,97,91,68,29.96,29.87,15,2,16,2.29
2012-5-20,87,78,70,74,72,69,98,82,62,29.96,29.87,12,2,12,0.03
2012-5-21,88,79,70,74,71,67,96,78,57,29.97,29.90,9,2,13,0.04
2012-5-22,81,75,72,75,72,70,95,90,77,29.96,29.88,16,2,21,0.25
2012-5-23,84,78,73,76,73,71,97,87,72,29.92,29.84,10,3,17,0.38
2012-5-24,81,75,72,76,73,70,97,92,78,29.88,29.81,9,2,15,0.23
2012-5-25,88,79,71,76,73,70,99,83,63,30.00,29.86,10,2,13,0.01
2012-5-26,88,78,75,76,71,-100,98,82,62,30.01,29.94,8,-14,12,0.00
2012-5-27,91,77,72,75,72,67,97,86,45,29.95,29.82,32,4,32,0.63
2012-5-28,88,81,72,77,74,71,96,79,65,29.95,29.86,22,6,22,0.24
2012-5-29,88,78,71,77,74,69,98,87,66,29.96,29.87,13,3,20,0.05
2012-5-30,91,81,73,76,74,71,98,79,53,29.93,29.80,12,3,17,0.00
2012-5-31,87,79,75,76,74,71,96,86,63,29.94,29.85,8,2,14,0.23
2012-6-1,84,77,72,77,74,71,98,93,76,29.97,29.85,11,3,17,0.58
2012-6-2,88,81,75,78,74,71,96,81,63,29.96,29.86,10,3,12,0.02
2012-6-3,91,83,73,75,70,66,97,66,45,30.02,29.92,12,3,12,0.00
2012-6-4,91,83,74,78,73,70,93,74,53,29.98,29.85,13,3,18,0.00
2012-6-5,87,80,76,78,75,71,95,85,69,29.88,29.80,9,2,15,0.00
2012-6-6,86,80,70,78,75,68,98,85,68,29.94,29.86,6,1,13,0.92
2012-6-7,89,83,80,79,77,73,94,81,63,29.95,29.89,10,2,15,0.01
2012-6-8,87,79,74,79,76,72,97,89,75,29.96,29.89,8,2,12,0.30
2012-6-9,90,80,74,78,76,73,98,88,66,30.02,29.92,13,2,15,0.19
2012-6-10,89,83,77,79,77,76,98,83,67,30.11,29.97,11,3,15,0.07
2012-6-11,88,83,77,76,73,69,90,73,56,30.10,30.02,11,3,16,0.00
2012-6-12,88,81,73,71,70,68,89,70,52,30.07,29.95,8,2,12,0.00
2012-6-13,91,81,72,74,72,68,97,74,54,29.98,29.86,10,2,18,0.00
2012-6-14,93,82,73,78,74,70,94,80,58,29.97,29.87,9,2,12,0.03
2012-6-15,88,79,74,77,74,71,97,85,66,30.00,29.89,12,2,15,0.59
2012-6-16,86,80,73,74,71,69,97,77,61,30.01,29.92,11,4,19,0.25
2012-6-17,85,80,72,71,68,66,90,70,55,30.02,29.92,13,4,20,0.00
2012-6-18,86,81,76,71,68,67,76,65,53,30.01,29.92,13,5,17,0.00
2012-6-19,85,80,76,75,72,68,93,75,62,30.03,29.96,17,7,23,0.35
2012-6-20,82,77,74,76,74,73,98,93,74,30.00,29.93,24,3,24,1.84
2012-6-21,88,80,74,77,75,73,99,86,68,29.98,29.86,14,3,16,0.48
2012-6-22,86,79,74,78,76,73,97,89,69,29.93,29.82,10,2,16,0.16
2012-6-23,85,80,73,78,75,72,98,87,75,30.00,29.84,23,4,23,0.71
2012-6-24,82,78,73,79,76,72,99,93,86,29.97,29.83,27,6,27,3.85
2012-6-25,88,84,81,78,76,73,88,80,61,29.84,29.73,18,8,27,0.00
2012-6-26,90,84,77,77,75,71,94,75,56,29.75,29.68,23,9,35,0.09
2012-6-27,88,80,75,79,76,72,95,88,70,29.98,29.72,20,6,24,0.77
2012-6-28,91,81,73,75,72,70,92,76,58,30.05,29.96,12,2,12,0.77
2012-6-29,92,82,73,75,72,64,97,73,46,30.04,29.92,10,2,14,0.00
2012-6-30,93,84,76,78,75,71,92,75,55,29.99,29.91,8,2,11,0.00
2012-7-1,93,84,77,78,75,73,95,76,59,30.06,29.96,11,3,15,0.00
2012-7-2,93,84,77,78,76,71,96,79,50,30.09,29.98,14,2,16,0.00
2012-7-3,92,84,76,78,76,74,95,78,55,30.05,29.98,8,2,14,0.02
2012-7-4,93,86,77,79,76,74,97,74,56,30.08,30.00,13,2,13,0.00
2012-7-5,92,82,76,78,76,73,96,81,58,30.04,29.96,9,2,15,0.02
2012-7-6,92,84,75,77,75,72,95,76,58,30.04,29.98,10,2,15,0.02
2012-7-7,92,84,77,78,76,73,94,77,56,30.07,30.01,10,2,16,0.00
2012-7-8,91,86,78,78,76,73,96,74,57,30.07,30.00,14,3,15,0.00
2012-7-9,91,84,76,78,76,74,97,79,59,30.04,29.95,9,2,14,0.00
2012-7-10,92,82,74,78,76,71,97,81,63,30.02,29.93,14,3,18,0.37
2012-7-11,87,77,72,76,74,71,99,89,64,30.06,29.93,11,1,23,1.91
2012-7-12,90,80,75,76,74,72,96,81,61,30.01,29.94,16,2,22,0.03
2012-7-13,89,83,76,77,75,73,96,79,61,30.04,29.97,13,3,17,0.01
2012-7-14,90,83,78,78,75,73,91,77,61,30.06,29.97,16,4,22,0.04
2012-7-15,91,80,74,77,74,71,96,83,53,30.09,30.01,14,2,18,0.31
2012-7-16,87,77,71,77,74,70,98,91,67,30.09,29.98,9,2,12,1.10
2012-7-17,88,77,74,78,75,72,98,93,68,30.03,29.95,11,1,22,0.85
2012-7-18,92,81,73,79,75,72,98,83,57,30.11,29.98,9,2,14,0.00
2012-7-19,92,85,78,79,77,74,98,79,59,30.16,30.08,9,2,13,0.00
2012-7-20,88,81,77,78,77,76,96,87,70,30.12,30.07,10,1,15,0.00
2012-7-21,92,88,83,80,78,77,85,73,62,30.09,30.01,13,4,15,0.00
2012-7-22,87,78,74,80,75,72,98,90,76,30.12,30.02,23,2,24,0.60
2012-7-23,90,81,74,79,76,72,98,86,63,30.15,30.08,7,2,12,0.56
2012-7-24,93,79,69,80,74,66,96,87,66,30.12,29.98,26,2,27,0.29
2012-7-25,94,84,75,79,76,73,97,80,54,30.04,29.96,9,2,13,0.04
2012-7-26,92,84,77,79,76,74,95,78,58,30.03,29.96,9,2,12,0.00
2012-7-27,93,84,78,78,76,72,96,78,53,30.08,29.98,10,2,15,0.00
2012-7-28,92,84,76,79,76,71,97,78,54,30.09,30.02,10,2,14,0.22
2012-7-29,93,84,76,78,75,72,97,77,55,30.07,29.98,10,2,16,0.00
2012-7-30,94,83,76,77,75,70,96,76,56,30.04,29.95,9,2,15,0.00
2012-7-31,94,84,75,77,74,72,94,75,51,30.04,29.94,14,3,15,0.00
2012-8-1,94,82,74,79,75,69,94,81,51,30.01,29.92,10,2,15,0.28
2012-8-2,94,84,77,79,77,71,98,79,50,29.98,29.90,9,2,14,0.00
2012-8-3,84,80,75,80,77,73,98,93,78,30.00,29.90,9,1,18,0.55
2012-8-4,90,81,76,78,75,-100,98,83,66,30.04,29.92,10,-8,15,0.00
2012-8-5,92,85,77,79,77,73,91,78,62,30.07,30.00,14,3,15,0.06
2012-8-6,89,79,74,79,76,72,98,91,70,30.06,29.97,11,2,28,1.85
2012-8-7,91,83,74,80,77,73,99,82,60,30.04,29.94,11,3,16,0.54
2012-8-8,93,85,77,79,77,76,96,79,60,30.03,29.96,9,2,11,0.00
2012-8-9,92,86,79,79,77,76,94,76,61,30.01,29.91,10,3,16,0.00
2012-8-10,88,82,77,78,76,73,94,83,68,29.99,29.91,11,3,15,0.00
2012-8-11,90,79,73,79,75,72,98,88,63,30.02,29.92,11,2,17,1.79
2012-8-12,92,79,75,79,76,74,99,92,57,30.04,29.96,14,1,14,0.36
2012-8-13,91,83,76,80,78,76,99,86,63,30.05,29.97,10,1,10,0.01
2012-8-14,89,83,78,80,78,76,98,86,67,30.04,29.94,7,1,12,0.17
2012-8-15,90,84,78,81,78,77,98,82,65,30.02,29.96,9,2,14,0.14
2012-8-16,93,84,79,81,78,75,97,84,59,30.06,29.98,8,1,11,0.03
2012-8-17,93,81,74,78,76,73,97,85,56,30.04,29.90,7,1,17,0.17
2012-8-18,92,80,75,78,75,73,98,86,54,29.99,29.90,9,2,17,0.01
2012-8-19,92,84,78,79,77,74,95,80,56,29.99,29.90,10,3,16,0.00
2012-8-20,93,83,77,78,77,72,95,81,54,30.00,29.89,14,2,21,0.03
2012-8-21,93,81,74,78,75,71,96,84,53,30.08,29.96,13,3,19,0.74
2012-8-22,90,80,74,79,75,72,97,85,64,30.09,30.00,9,2,14,0.24
2012-8-23,93,83,75,80,76,73,97,79,57,30.06,29.99,9,2,11,0.01
2012-8-24,89,79,72,78,74,68,96,84,57,30.02,29.91,22,4,27,0.75
2012-8-25,85,78,71,79,74,69,98,89,76,29.97,29.87,16,5,24,1.30
2012-8-26,83,79,75,79,76,73,98,92,81,29.88,29.67,18,8,34,5.21
2012-8-27,84,80,74,80,77,73,98,92,84,29.93,29.73,32,10,39,7.99
2012-8-28,92,81,76,80,77,72,96,88,69,29.99,29.90,15,4,19,0.24
2012-8-29,91,83,77,79,77,75,97,82,63,29.99,29.90,14,4,17,0.00
2012-8-30,92,83,76,78,75,-100,97,79,59,30.09,29.95,9,-9,14,0.00
2012-8-31,91,84,77,79,77,76,98,82,62,30.13,30.04,11,2,12,0.00
2012-9-1,89,83,77,78,77,73,98,82,68,30.10,30.01,13,4,16,0.10
2012-9-2,88,82,75,74,72,70,89,73,55,30.03,29.96,10,3,14,0.00
2012-9-3,90,81,75,76,72,-100,97,79,60,30.03,29.96,9,-9,17,0.00
2012-9-4,89,78,72,77,71,-100,96,82,64,30.02,29.92,19,-6,19,0.11
2012-9-5,89,78,72,77,73,70,97,86,61,30.00,29.90,14,2,26,0.40
2012-9-6,90,78,74,77,73,69,98,86,62,30.02,29.95,14,1,21,0.05
2012-9-7,91,80,74,78,74,72,97,84,59,29.99,29.90,11,1,20,0.54
2012-9-8,92,83,76,77,75,71,95,78,51,29.96,29.86,7,2,14,0.00
2012-9-9,92,83,77,78,75,72,97,78,55,29.95,29.86,11,3,18,0.00
2012-9-10,88,80,75,78,76,73,97,88,72,29.99,29.91,9,2,17,0.38
2012-9-11,88,80,76,79,76,75,99,90,70,30.05,29.95,11,2,18,0.66
2012-9-12,88,82,76,77,75,72,96,79,67,30.05,29.98,16,5,22,0.39
2012-9-13,86,81,75,76,74,72,95,80,68,30.05,29.96,10,4,21,0.40
2012-9-14,89,81,74,77,75,73,97,82,65,30.01,29.94,10,3,16,0.00
2012-9-15,84,78,75,77,75,72,96,88,78,30.03,29.96,7,2,14,0.15
2012-9-16,86,79,74,77,75,72,98,86,69,30.03,29.94,9,2,14,0.14
2012-9-17,88,81,75,77,75,72,97,84,68,30.01,29.90,11,3,16,0.05
2012-9-18,91,82,75,78,76,74,96,82,62,29.98,29.86,13,3,17,0.09
2012-9-19,91,81,76,78,76,71,97,86,61,30.05,29.89,7,1,17,0.01
2012-9-20,89,81,74,77,74,72,97,81,61,30.04,29.91,12,2,12,0.00
2012-9-21,89,79,73,77,74,70,97,87,57,29.97,29.88,9,1,16,1.19
2012-9-22,84,76,72,76,75,72,99,94,76,30.00,29.90,8,1,16,2.18
2012-9-23,87,79,74,77,75,74,99,88,71,30.03,29.96,7,2,10,0.01
2012-9-24,84,79,75,76,74,71,97,85,71,30.04,29.96,10,3,17,0.01
2012-9-25,88,80,75,76,74,71,93,82,65,30.06,29.97,9,2,13,0.00
2012-9-26,86,80,75,77,75,71,95,82,70,30.06,29.99,7,1,12,0.00
2012-9-27,90,82,76,78,75,72,97,81,58,30.06,29.97,11,2,13,0.00
2012-9-28,89,81,76,77,76,74,98,85,66,30.00,29.91,11,2,13,0.00
2012-9-29,91,80,75,78,72,-100,97,82,64,29.95,29.83,10,-19,11,0.00
2012-9-30,90,82,75,78,76,73,99,82,60,29.89,29.77,11,2,14,0.00
2012-10-1,86,80,74,78,76,73,97,89,74,29.85,29.75,12,3,19,0.37
2012-10-2,87,78,74,78,75,73,98,93,72,30.04,29.84,11,3,17,1.10
2012-10-3,91,82,75,80,77,74,99,85,66,30.15,30.02,11,2,15,0.01
2012-10-4,91,84,78,80,78,76,95,83,65,30.15,30.04,9,2,14,0.03
2012-10-5,91,84,78,79,77,75,95,81,63,30.08,29.91,10,2,14,0.09
2012-10-6,90,80,74,78,75,72,98,86,63,30.01,29.83,13,2,13,0.30
2012-10-7,88,80,73,78,75,71,98,86,67,30.01,29.92,12,2,14,0.05
2012-10-8,90,81,76,78,77,74,97,86,64,30.04,29.94,8,1,11,0.02
2012-10-9,89,82,76,78,76,73,99,84,60,30.05,29.98,7,2,13,0.00
2012-10-10,86,80,76,77,75,73,97,85,70,30.10,30.01,13,3,17,0.12
2012-10-11,84,78,72,74,70,68,95,77,60,30.15,30.07,11,4,19,0.00
2012-10-12,83,78,74,69,67,65,83,70,55,30.15,30.08,14,4,22,0.00
2012-10-13,85,81,73,72,68,66,85,67,56,30.14,30.06,23,8,24,0.00
2012-10-14,85,81,79,77,74,69,87,79,70,30.10,29.97,19,6,23,0.01
2012-10-15,87,81,75,76,74,71,92,79,59,29.98,29.82,10,3,14,0.01
2012-10-16,86,78,73,75,72,69,97,82,58,29.88,29.79,9,2,15,0.00
2012-10-17,86,75,69,76,72,68,98,92,67,29.94,29.83,10,2,16,1.75
2012-10-18,89,78,71,78,75,70,99,90,68,29.91,29.83,9,2,13,0.49
2012-10-19,88,80,74,77,75,70,99,86,67,29.93,29.82,9,2,15,0.01
2012-10-20,83,77,73,75,72,70,98,86,67,29.96,29.87,9,2,12,0.01
2012-10-21,84,77,69,71,66,62,95,70,48,30.04,29.92,9,3,15,0.00
2012-10-22,84,79,73,70,66,63,77,66,56,30.05,29.99,14,5,25,0.00
2012-10-23,84,79,72,73,69,61,95,71,56,30.03,29.96,14,6,26,0.11
2012-10-24,85,79,72,74,72,70,95,79,61,30.00,29.89,17,7,24,0.07
2012-10-25,81,78,73,76,72,68,93,81,75,29.88,29.69,22,8,32,0.43
2012-10-26,78,74,69,72,70,67,98,87,73,29.67,29.49,25,10,34,1.73
2012-10-27,78,73,69,69,65,64,93,76,66,29.71,29.48,22,8,27,0.01
2012-10-28,78,72,66,66,64,57,92,77,58,29.81,29.69,14,6,21,0.00
2012-10-29,70,63,57,58,50,42,81,63,38,29.89,29.77,16,6,20,0.00
2012-10-30,71,60,53,51,47,39,85,63,45,30.02,29.85,13,4,19,0.00
2012-10-31,72,62,54,57,52,43,96,73,47,30.10,30.01,9,2,13,0.00
2012-11-1,78,67,56,64,60,55,97,79,51,30.09,29.99,7,2,14,0.00
2012-11-2,78,69,61,64,58,48,97,71,35,30.12,30.03,10,2,12,0.00
2012-11-3,81,68,58,64,59,53,94,75,43,30.17,30.07,7,1,10,0.00
2012-11-4,83,71,62,67,64,61,98,80,49,30.15,30.03,7,1,11,0.01
2012-11-5,78,70,65,66,64,61,95,83,61,30.05,29.95,4,0,7,0.00
2012-11-6,81,71,64,68,62,-100,98,77,48,29.97,29.84,9,-9,17,0.00
2012-11-7,69,65,58,64,56,49,96,75,58,30.02,29.86,13,4,17,0.00
2012-11-8,67,60,55,53,48,40,83,67,40,30.15,30.00,14,4,19,0.00
2012-11-9,74,66,57,60,54,52,85,69,52,30.24,30.13,10,4,16,0.00
2012-11-10,76,72,67,60,56,53,75,59,52,30.29,30.20,11,3,18,0.00
2012-11-11,80,76,72,65,61,54,72,61,46,30.28,30.21,15,7,23,0.00
2012-11-12,80,76,74,69,67,65,79,73,64,30.24,30.16,15,6,22,0.00
2012-11-13,82,76,66,68,67,64,94,75,61,30.17,30.08,11,2,14,0.00
2012-11-14,81,73,66,70,66,64,96,81,64,30.15,30.08,12,2,16,0.01
2012-11-15,80,71,64,69,66,63,98,85,60,30.13,30.06,9,2,12,0.00
2012-11-16,76,68,63,70,66,62,98,91,77,30.14,30.06,9,2,14,0.17
2012-11-17,80,70,65,68,64,-100,98,85,62,30.13,30.06,11,3,17,0.03
2012-11-18,77,70,66,69,66,64,95,87,73,30.14,30.06,20,6,20,0.00
2012-11-19,68,63,59,64,59,57,95,88,76,30.16,30.06,11,4,16,0.00
2012-11-20,74,65,59,66,62,58,97,89,76,30.06,29.95,12,5,16,0.00
2012-11-21,74,65,59,63,57,-100,94,79,58,30.06,29.96,14,5,17,0.00
2012-11-22,72,63,57,57,53,50,83,70,55,30.15,30.03,16,6,22,0.00
2012-11-23,75,64,57,59,55,51,89,74,50,30.17,30.08,10,4,15,0.00
2012-11-24,73,62,52,57,53,48,89,74,49,30.14,30.03,8,2,15,0.00
2012-11-25,78,64,54,62,57,52,95,79,50,30.16,30.08,4,1,10,0.00
2012-11-26,80,69,60,66,62,58,96,81,54,30.23,30.14,10,1,13,0.00
2012-11-27,80,73,65,67,65,62,94,76,61,30.22,30.12,11,2,14,0.00
2012-11-28,77,69,63,67,65,61,97,86,60,30.22,30.12,14,3,19,0.00
2012-11-29,78,69,60,67,63,59,97,82,61,30.25,30.18,15,4,23,0.20
2012-11-30,76,73,70,64,62,60,76,70,62,30.26,30.17,15,6,23,0.01
2012-12-1,78,72,63,67,64,61,93,74,62,30.23,30.16,15,4,19,0.05
2012-12-2,79,74,72,67,65,64,79,73,65,30.27,30.19,17,5,21,0.05
2012-12-3,78,73,69,67,62,54,80,68,51,30.28,30.20,12,4,18,0.00
2012-12-4,78,73,68,65,61,54,80,67,52,30.27,30.18,17,3,19,0.00
2012-12-5,81,74,69,65,64,61,86,72,54,30.18,30.05,9,2,13,0.00
2012-12-6,82,73,66,70,67,65,96,83,60,30.04,29.93,10,1,13,0.00
2012-12-7,82,72,65,70,67,64,98,86,62,30.02,29.93,9,2,13,0.02
2012-12-8,81,74,65,73,70,64,98,87,70,30.07,29.99,9,1,13,0.02
2012-12-9,84,75,69,75,72,68,98,90,74,30.12,30.02,7,1,11,0.00
2012-12-10,84,76,68,76,72,67,99,89,75,30.05,29.93,13,4,17,0.01
2012-12-11,86,77,71,77,74,69,97,90,72,30.09,29.94,10,4,18,0.20
2012-12-12,82,76,71,74,72,71,98,88,72,30.12,30.04,14,3,20,0.01
2012-12-13,75,70,64,74,68,63,98,93,84,30.14,30.05,13,3,17,0.35
2012-12-14,77,69,63,67,64,60,98,84,57,30.16,30.08,14,4,18,0.07
2012-12-15,79,73,67,67,66,64,97,79,64,30.14,30.06,11,3,16,0.01
2012-12-16,78,72,66,71,68,65,98,88,70,30.08,29.98,8,1,12,0.02
2012-12-17,81,72,64,69,68,64,99,85,64,30.01,29.92,8,1,16,0.02
2012-12-18,78,71,67,70,68,65,99,91,73,30.04,29.93,7,1,11,0.01
2012-12-19,82,71,60,66,62,56,90,75,48,30.12,30.04,7,1,10,0.01
2012-12-20,81,72,63,68,66,62,98,80,58,30.13,29.99,10,3,17,0.00
2012-12-21,71,63,50,69,50,36,94,64,36,30.20,29.97,13,5,22,0.00
2012-12-22,64,53,44,41,32,23,65,47,27,30.28,30.20,11,4,15,0.00
2012-12-23,72,58,49,56,45,-100,87,63,49,30.28,30.18,7,-9,10,0.00
2012-12-24,76,66,55,61,57,53,92,76,55,30.18,30.03,10,2,14,0.00
2012-12-25,79,68,58,65,61,57,97,79,58,30.08,29.97,10,3,15,0.00
2012-12-26,82,73,62,71,67,59,96,82,62,30.01,29.85,13,5,24,0.01
2012-12-27,70,59,51,58,50,44,95,75,41,30.11,30.00,7,1,14,0.01
2012-12-28,76,67,53,71,63,52,96,87,70,30.12,30.00,8,2,13,0.01
2012-12-29,80,74,60,74,70,55,95,87,72,30.13,29.95,12,5,20,0.00
2012-12-30,66,59,49,57,52,45,88,77,66,30.32,30.13,13,5,23,0.00
2012-12-31,74,69,65,61,58,55,74,69,62,30.35,30.23,14,4,18,0.00
2013-1-1,78,71,63,63,61,59,89,71,59,30.23,30.09,13,4,25,0.00